AQQ10 IFIS: Internet Flight Information System
logo dgac
Martes 21 de Septiembre del 2021
Buscar por aerodromo o helipuerto
Ingrese nombre de aeródromo, localidad o designador OACI:
METAR del 21-09-2021 a las 10:00 UTC
Para mayor información visite www.meteochile.cl
METAR SCAP 211000Z AUTO VRB01KT 9999 ////// 00/M01 Q1028
Viento: dirección variable, velocidad 1 nudos
Visibilidad: 10 km o más
Temperatura: 0 °C
Rocío: -1 °C
Humedad_relativa: 93%
Presión: 1028 hPa
METAR del 21-09-2021 a las 09:00 UTC
Para mayor información visite www.meteochile.cl
METAR SCAP 210900Z AUTO VRB02KT 9999 ////// 00/M01 Q1028
Viento: dirección variable, velocidad 2 nudos
Visibilidad: 10 km o más
Temperatura: 0 °C
Rocío: -1 °C
Humedad_relativa: 93%
Presión: 1028 hPa
METAR del 21-09-2021 a las 08:00 UTC
Para mayor información visite www.meteochile.cl
METAR SCAP 210800Z AUTO VRB02KT 9999 ////// 00/M01 Q1028
Viento: dirección variable, velocidad 2 nudos
Visibilidad: 10 km o más
Temperatura: 0 °C
Rocío: -1 °C
Humedad_relativa: 93%
Presión: 1028 hPa
SPECI del 21-09-2021 a las 07:28 UTC
Para mayor información visite www.meteochile.cl
SPECI SCAP 210728Z AUTO VRB01KT 9999 ////// 00/M01 Q1028
Viento: dirección variable, velocidad 1 nudos
Visibilidad: 10 km o más
Temperatura: 0 °C
Rocío: -1 °C
Humedad_relativa: 93%
Presión: 1028 hPa
SPECI del 21-09-2021 a las 07:17 UTC
Para mayor información visite www.meteochile.cl
SPECI SCAP 210717Z AUTO VRB01KT 4400 ////// 00/M01 Q1029
Viento: dirección variable, velocidad 1 nudos
Visibilidad: 4400 metros
Temperatura: 0 °C
Rocío: -1 °C
Humedad_relativa: 93%
Presión: 1029 hPa
SPECI del 21-09-2021 a las 07:17 UTC
Para mayor información visite www.meteochile.cl
SPECI SCAP 210717Z AUTO VRB01KT 4400 ////// 00/M01 Q1029
Viento: dirección variable, velocidad 1 nudos
Visibilidad: 4400 metros
Temperatura: 0 °C
Rocío: -1 °C
Humedad_relativa: 93%
Presión: 1029 hPa
METAR del 21-09-2021 a las 07:00 UTC
Para mayor información visite www.meteochile.cl
METAR SCAP 210700Z AUTO VRB01KT 9999 ////// 01/M00 Q1029
Viento: dirección variable, velocidad 1 nudos
Visibilidad: 10 km o más
Temperatura: 1 °C
Rocío: -0 °C
Humedad_relativa: 93%
Presión: 1029 hPa
SPECI del 21-09-2021 a las 06:34 UTC
Para mayor información visite www.meteochile.cl
SPECI SCAP 210634Z AUTO VRB01KT 9999 BR ////// 01/M00 Q1029
Viento: dirección variable, velocidad 1 nudos
Visibilidad: 10 km o más
Neblina
Temperatura: 1 °C
Rocío: -0 °C
Humedad_relativa: 93%
Presión: 1029 hPa
SPECI del 21-09-2021 a las 06:34 UTC
Para mayor información visite www.meteochile.cl
SPECI SCAP 210634Z AUTO VRB01KT 9999 BR ////// 01/M00 Q1029
Viento: dirección variable, velocidad 1 nudos
Visibilidad: 10 km o más
Neblina
Temperatura: 1 °C
Rocío: -0 °C
Humedad_relativa: 93%
Presión: 1029 hPa
SPECI del 21-09-2021 a las 06:24 UTC
Para mayor información visite www.meteochile.cl
SPECI SCAP 210624Z AUTO VRB01KT 1300 BR ////// 01/M00 Q1029
Viento: dirección variable, velocidad 1 nudos
Visibilidad: 1300 metros
Neblina
Temperatura: 1 °C
Rocío: -0 °C
Humedad_relativa: 93%
Presión: 1029 hPa